createdAt,value
2022-10-08T00:01:39.165Z,13.70
2022-10-08T00:06:42.650Z,9.30
2022-10-08T00:11:46.170Z,11.60
2022-10-08T00:16:49.488Z,12.90
2022-10-08T00:21:57.203Z,8.30
2022-10-08T00:27:00.622Z,10.60
2022-10-08T00:32:04.863Z,11.10
2022-10-08T00:37:08.379Z,8.40
2022-10-08T00:42:13.243Z,9.60
2022-10-08T00:47:35.682Z,9.20
2022-10-08T00:53:06.324Z,11.20
2022-10-08T00:58:23.210Z,8.60
2022-10-08T01:03:26.602Z,13.70
2022-10-08T01:08:33.091Z,10.00
2022-10-08T01:13:46.190Z,7.20
2022-10-08T01:19:06.545Z,9.70
2022-10-08T01:24:15.998Z,10.10
2022-10-08T01:29:34.658Z,10.80
2022-10-08T01:34:46.335Z,8.30
2022-10-08T01:39:53.506Z,8.20
2022-10-08T01:45:01.800Z,11.20
2022-10-08T01:50:23.739Z,6.30
2022-10-08T01:55:34.640Z,8.20
2022-10-08T02:00:40.922Z,8.30
2022-10-08T02:05:48.525Z,8.20
2022-10-08T02:10:53.271Z,9.50
2022-10-08T02:15:59.454Z,6.20
2022-10-08T02:21:07.015Z,6.40
2022-10-08T02:26:14.736Z,6.40
2022-10-08T02:31:21.221Z,6.90
2022-10-08T02:36:31.341Z,6.70
2022-10-08T02:41:41.104Z,8.90
2022-10-08T02:46:50.155Z,4.90
2022-10-08T02:51:55.823Z,11.10
2022-10-08T02:57:09.350Z,10.20
2022-10-08T03:02:27.918Z,10.10
2022-10-08T03:07:33.674Z,8.60
2022-10-08T03:12:37.433Z,7.10
2022-10-08T03:17:45.069Z,5.90
2022-10-08T03:22:48.681Z,10.00
2022-10-08T03:27:52.396Z,6.00
2022-10-08T03:32:55.919Z,6.80
2022-10-08T03:37:59.437Z,10.50
2022-10-08T03:43:02.960Z,5.90
2022-10-08T03:48:06.381Z,6.10
2022-10-08T03:53:10.003Z,7.10
2022-10-08T03:58:14.238Z,7.10
2022-10-08T04:03:17.656Z,8.30
2022-10-08T04:08:21.390Z,5.80
2022-10-08T04:13:24.763Z,6.80
2022-10-08T04:18:28.322Z,5.50
2022-10-08T04:23:34.570Z,5.50
2022-10-08T04:28:39.500Z,6.00
2022-10-08T04:33:43.994Z,6.60
2022-10-08T04:38:48.116Z,6.60
2022-10-08T04:43:52.796Z,6.00
2022-10-08T04:48:57.327Z,5.40
2022-10-08T04:54:02.079Z,7.10
2022-10-08T04:59:11.231Z,6.90
2022-10-08T05:04:14.745Z,6.90
2022-10-08T05:09:18.165Z,6.70
2022-10-08T05:14:21.445Z,7.80
2022-10-08T05:19:24.832Z,6.00
2022-10-08T05:24:28.215Z,6.40
2022-10-08T05:29:31.839Z,5.20
2022-10-08T05:34:35.366Z,6.70
2022-10-08T05:39:38.986Z,7.60
2022-10-08T05:44:45.409Z,5.20
2022-10-08T05:49:50.550Z,7.70
2022-10-08T05:54:54.558Z,5.40
2022-10-08T05:59:58.079Z,7.10
2022-10-08T06:05:01.744Z,6.80
2022-10-08T06:10:05.940Z,5.50
2022-10-08T06:15:10.509Z,6.50
2022-10-08T06:20:14.622Z,6.10
2022-10-08T06:25:21.041Z,6.40
2022-10-08T06:30:24.846Z,5.30
2022-10-08T06:35:30.503Z,6.60
2022-10-08T06:40:41.307Z,6.70
2022-10-08T06:45:45.880Z,6.30
2022-10-08T06:51:05.819Z,9.50
2022-10-08T06:56:19.482Z,9.30
2022-10-08T07:01:33.392Z,4.20
2022-10-08T07:06:43.107Z,4.90
2022-10-08T07:12:04.537Z,3.80
2022-10-08T07:17:12.558Z,6.00
2022-10-08T07:22:22.524Z,6.90
2022-10-08T07:27:26.351Z,5.20
2022-10-08T07:43:58.343Z,4.90
2022-10-08T07:49:03.511Z,7.00
2022-10-08T07:54:12.267Z,6.60
2022-10-08T07:59:16.382Z,7.00
2022-10-08T08:04:36.825Z,4.50
2022-10-08T08:09:55.357Z,4.70
2022-10-08T08:15:08.199Z,4.70
2022-10-08T08:20:25.382Z,4.60
2022-10-08T08:25:56.388Z,4.80
2022-10-08T08:31:50.485Z,8.10
2022-10-08T08:37:20.405Z,5.70
2022-10-08T08:43:03.258Z,4.00
2022-10-08T08:48:37.070Z,6.70
2022-10-08T08:54:04.748Z,4.30
2022-10-08T08:59:40.059Z,6.20
2022-10-08T09:04:57.490Z,5.50
2022-10-08T09:10:05.900Z,9.60
2022-10-08T09:15:30.016Z,12.20
2022-10-08T09:20:49.791Z,9.20
2022-10-08T09:26:18.694Z,10.10
2022-10-08T09:31:51.959Z,14.10
2022-10-08T09:37:17.093Z,10.00
2022-10-08T09:42:21.023Z,10.80
2022-10-08T09:47:30.483Z,10.60
2022-10-08T09:52:47.154Z,9.00
2022-10-08T09:58:01.266Z,11.80
2022-10-08T10:03:33.973Z,15.10
2022-10-08T10:09:11.749Z,9.40
2022-10-08T10:14:58.801Z,16.40
2022-10-08T10:20:31.974Z,8.80
2022-10-08T10:26:27.308Z,9.90
2022-10-08T10:37:07.888Z,10.30
2022-10-08T10:42:39.647Z,9.80
2022-10-08T10:47:55.034Z,14.20
2022-10-08T10:59:20.168Z,11.50
2022-10-08T11:04:41.988Z,10.50
2022-10-08T11:09:56.468Z,11.00
2022-10-08T11:15:21.581Z,9.80
2022-10-08T11:20:40.074Z,12.70
2022-10-08T11:26:15.406Z,10.00
2022-10-08T11:31:23.957Z,15.20
2022-10-08T11:36:40.558Z,11.20
2022-10-08T11:41:59.321Z,10.20
2022-10-08T11:47:45.640Z,10.30
2022-10-08T11:53:00.920Z,8.70
2022-10-08T11:58:25.455Z,9.70
2022-10-08T12:03:46.930Z,14.20
2022-10-08T12:09:00.999Z,12.10
2022-10-08T12:14:15.246Z,10.10
2022-10-08T12:19:39.964Z,13.00
2022-10-08T12:24:50.743Z,15.20
2022-10-08T12:30:25.223Z,11.90
2022-10-08T12:35:44.136Z,15.10
2022-10-08T12:41:31.672Z,11.80
2022-10-08T12:47:13.036Z,16.60
2022-10-08T12:52:32.233Z,9.70
2022-10-08T12:57:42.060Z,13.10
2022-10-08T13:03:08.673Z,12.50
2022-10-08T13:08:32.958Z,11.70
2022-10-08T13:13:51.019Z,15.60
2022-10-08T13:19:03.819Z,13.40
2022-10-08T13:24:14.743Z,27.90
2022-10-08T13:29:28.463Z,21.30
2022-10-08T13:35:04.353Z,11.90
2022-10-08T13:40:19.761Z,13.70
2022-10-08T13:45:38.956Z,12.90
2022-10-08T13:50:56.523Z,9.90
2022-10-08T13:56:02.398Z,12.00
2022-10-08T14:01:11.742Z,11.30
2022-10-08T14:06:27.451Z,9.80
2022-10-08T14:11:35.934Z,16.50
2022-10-08T14:16:48.869Z,7.50
2022-10-08T14:22:00.423Z,8.30
2022-10-08T14:27:15.612Z,10.70
2022-10-08T14:32:21.829Z,11.00
2022-10-08T14:37:39.142Z,8.70
2022-10-08T14:43:02.889Z,7.20
2022-10-08T14:48:15.650Z,9.20
2022-10-08T14:53:40.963Z,8.30
2022-10-08T14:59:09.551Z,8.30
2022-10-08T15:04:26.790Z,9.90
2022-10-08T15:09:43.845Z,11.50
2022-10-08T15:15:09.848Z,10.40
2022-10-08T15:20:18.588Z,14.90
2022-10-08T15:25:30.275Z,9.30
2022-10-08T15:30:38.033Z,11.80
2022-10-08T15:35:42.255Z,11.30
2022-10-08T15:40:49.539Z,7.80
2022-10-08T15:46:02.404Z,10.10
2022-10-08T15:51:11.560Z,9.90
2022-10-08T15:56:23.213Z,8.50
2022-10-08T16:01:31.565Z,9.20
2022-10-08T16:06:46.154Z,8.30
2022-10-08T16:11:52.637Z,10.10
2022-10-08T16:16:56.599Z,8.60
2022-10-08T16:22:01.446Z,7.70
2022-10-08T16:27:05.144Z,8.40
2022-10-08T16:32:11.429Z,10.50
2022-10-08T16:37:19.358Z,8.70
2022-10-08T16:42:30.443Z,9.00
2022-10-08T16:47:33.864Z,8.00
2022-10-08T16:52:38.202Z,11.80
2022-10-08T16:57:41.522Z,8.10
2022-10-08T17:02:45.217Z,9.50
2022-10-08T17:07:48.866Z,7.50
2022-10-08T17:13:01.097Z,10.10
2022-10-08T17:18:19.287Z,9.20
2022-10-08T17:23:25.014Z,9.40
2022-10-08T17:28:33.281Z,8.20
2022-10-08T17:33:38.676Z,6.60
2022-10-08T17:38:52.335Z,6.40
2022-10-08T17:44:08.515Z,9.10
2022-10-08T17:49:31.499Z,9.60
2022-10-08T17:54:49.538Z,6.60
2022-10-08T18:00:22.853Z,7.40
2022-10-08T18:06:13.795Z,6.40
2022-10-08T18:11:36.173Z,8.80
2022-10-08T18:17:16.359Z,8.50
2022-10-08T18:22:22.627Z,7.80
2022-10-08T18:27:36.362Z,7.00
2022-10-08T18:33:03.829Z,10.70
2022-10-08T18:38:20.044Z,8.00
2022-10-08T18:43:54.749Z,13.00
2022-10-08T18:49:33.933Z,10.80
2022-10-08T18:54:59.748Z,7.10
2022-10-08T19:01:00.041Z,11.50
2022-10-08T19:06:35.232Z,7.70
2022-10-08T19:12:02.120Z,11.20
2022-10-08T19:17:24.725Z,13.40
2022-10-08T19:29:22.731Z,17.10
2022-10-08T19:35:38.528Z,17.90
2022-10-08T19:41:26.086Z,23.60
2022-10-08T19:47:06.637Z,15.70
2022-10-08T19:52:28.052Z,28.80
2022-10-08T19:57:48.565Z,31.10
2022-10-08T20:08:11.953Z,22.30
2022-10-08T20:13:18.531Z,17.70
2022-10-08T20:18:41.916Z,17.40
2022-10-08T20:23:57.210Z,14.60
2022-10-08T20:29:22.062Z,17.50
2022-10-08T20:34:31.482Z,14.50
2022-10-08T20:39:37.855Z,16.70
2022-10-08T20:44:44.652Z,17.60
2022-10-08T20:49:49.093Z,14.60
2022-10-08T20:54:52.614Z,13.20
2022-10-08T20:59:57.798Z,12.80
2022-10-08T21:05:08.425Z,16.30
2022-10-08T21:10:11.875Z,21.10
2022-10-08T21:15:15.295Z,15.00
2022-10-08T21:20:18.814Z,13.70
2022-10-08T21:25:22.231Z,10.00
2022-10-08T21:30:25.757Z,14.30
2022-10-08T21:35:35.895Z,16.50
2022-10-08T21:40:39.447Z,14.90
2022-10-08T21:45:42.920Z,21.30
2022-10-08T21:50:55.920Z,18.00
2022-10-08T21:56:05.372Z,17.30
2022-10-08T22:01:25.462Z,12.80
2022-10-08T22:06:31.802Z,17.40
2022-10-08T22:11:36.204Z,12.60
2022-10-08T22:16:44.747Z,20.10
2022-10-08T22:22:05.225Z,9.10
2022-10-08T22:27:31.054Z,17.60
2022-10-08T22:32:46.109Z,17.80
2022-10-08T22:37:52.328Z,20.60
2022-10-08T22:42:55.739Z,16.40
2022-10-08T22:47:59.261Z,21.20
2022-10-08T22:53:02.678Z,18.10
2022-10-08T22:58:05.997Z,16.20
2022-10-08T23:03:09.343Z,13.20
2022-10-08T23:08:12.744Z,12.00
2022-10-08T23:13:16.688Z,17.80
2022-10-08T23:18:20.489Z,13.60
2022-10-08T23:23:24.626Z,16.30
2022-10-08T23:28:32.720Z,16.90
2022-10-08T23:33:42.317Z,15.30
2022-10-08T23:38:45.725Z,15.90
2022-10-08T23:43:50.781Z,14.10
2022-10-08T23:48:54.607Z,13.70
2022-10-08T23:53:58.646Z,18.50
2022-10-08T23:59:02.065Z,13.70
